MOL Celebration — C6WW7 — position and weather

sailwx.info

Track history (hours):
 
Tides and Currents Weather Stations Pressure Air Temp Water Temp Dewpoint Dewpoint Depression Visibility Wind Speed Wind Dir Waves Ship Positions

MOL Celebration

Last reported at 2014-Jul-24 19:32 UTC. Time now 2014-Jul-24 20:06 UTC.
Position N 50°54' W 001°27'.

Length 316 m; draft 14 m.

Type: Ship (hazmat cat D). MMSI: 309901000.

Date/timePositionNaut miles runAvg speedWind from/ knotsBaromVisibWave heightAir tempDewpointWater temp
2014-Jul-24 19:32N 50°54' W 001°27'0 0.0
2014-Jul-24 18:32N 50°54' W 001°27'0 0.0
2014-Jul-24 17:32N 50°54' W 001°27'0 0.0
2014-Jul-24 16:29N 50°54' W 001°27'0 0.0
2014-Jul-24 15:32N 50°54' W 001°27'0 0.0
2014-Jul-24 14:32N 50°54' W 001°27'0 0.0
2014-Jul-24 13:32N 50°54' W 001°27'0 0.0
2014-Jul-24 12:32N 50°54' W 001°27'0 0.0
2014-Jul-24 11:32N 50°54' W 001°27'0 0.0
2014-Jul-24 10:32N 50°54' W 001°27'0 0.0
2014-Jul-24 09:32N 50°54' W 001°27'0 0.0
2014-Jul-24 08:32N 50°54' W 001°27'0 0.0
2014-Jul-24 07:32N 50°54' W 001°27'0 0.0
2014-Jul-24 06:32N 50°54' W 001°27'0 0.0
2014-Jul-24 05:32N 50°54' W 001°27'0 0.0
2014-Jul-24 04:32N 50°54' W 001°27'0 0.0
2014-Jul-24 03:33N 50°54' W 001°27'0 0.0
2014-Jul-24 02:33N 50°54' W 001°27'0 0.0
2014-Jul-24 01:29N 50°54' W 001°27'0 0.0
2014-Jul-24 00:32N 50°54' W 001°27'2 2.0
2014-Jul-23 23:33N 50°53' W 001°24'7 6.9
2014-Jul-23 22:34N 50°47' W 001°19'1515.4
2014-Jul-23 21:34N 50°41' W 000°57'1414.3
2014-Jul-23 20:33N 50°27' W 000°52'2120.9
2014-Jul-23 19:33N 50°08' W 000°40'2221.6
2014-Jul-23 18:33N 49°48' W 000°26'1918.7
2014-Jul-23 17:33N 49°32' W 000°10'1212.3
2014-Jul-23 16:33N 49°28' E 000°07'1 1.1
2014-Jul-23 15:31N 49°28' E 000°09'0 0.0
2014-Jul-23 14:31N 49°28' E 000°09'0 0.0
2014-Jul-23 13:31N 49°28' E 000°09'0 0.0
2014-Jul-23 12:31N 49°28' E 000°09'0 0.0
2014-Jul-23 11:31N 49°28' E 000°09'0 0.0
2014-Jul-23 10:31N 49°28' E 000°09'0 0.0
2014-Jul-23 09:31N 49°28' E 000°09'0 0.0
2014-Jul-23 08:31N 49°28' E 000°09'0 0.0
2014-Jul-23 07:31N 49°28' E 000°09'0 0.0
2014-Jul-23 06:31N 49°28' E 000°09'0 0.0
2014-Jul-23 05:31N 49°28' E 000°09'0 0.0
2014-Jul-23 04:31N 49°28' E 000°09'0 0.0
2014-Jul-23 03:31N 49°28' E 000°09'0 0.0
2014-Jul-23 02:31N 49°28' E 000°09'0 0.0
2014-Jul-23 01:31N 49°28' E 000°09'0 0.0
2014-Jul-23 00:31N 49°28' E 000°09'0 0.0
2014-Jul-22 23:31N 49°28' E 000°09'0 0.0
2014-Jul-22 22:31N 49°28' E 000°09'0 0.0
2014-Jul-22 21:31N 49°28' E 000°09'0 0.0
2014-Jul-22 20:31N 49°28' E 000°09'0 0.0
2014-Jul-22 19:31N 49°28' E 000°09'0 0.0
2014-Jul-22 18:31N 49°28' E 000°09'0 0.0
2014-Jul-22 17:31N 49°28' E 000°09'0 0.0
2014-Jul-22 16:31N 49°28' E 000°09'0 0.0
2014-Jul-22 15:31N 49°28' E 000°09'0 0.0
2014-Jul-22 14:31N 49°28' E 000°09'0 0.0
2014-Jul-22 13:31N 49°28' E 000°09'0 0.0
2014-Jul-22 12:31N 49°28' E 000°09'0 0.0
2014-Jul-22 11:31N 49°28' E 000°09'0 0.0
2014-Jul-22 10:31N 49°28' E 000°09'0 0.0
2014-Jul-22 09:31N 49°28' E 000°09'0 0.0
2014-Jul-22 08:31N 49°28' E 000°09'0 0.0
2014-Jul-22 07:31N 49°28' E 000°09'0 0.0
2014-Jul-22 06:31N 49°28' E 000°09'0 0.0
2014-Jul-22 05:31N 49°28' E 000°09'0 0.0
2014-Jul-22 04:31N 49°28' E 000°09'0 0.0
2014-Jul-22 03:31N 49°28' E 000°09'0 0.0
2014-Jul-22 02:31N 49°28' E 000°09'3 3.1
2014-Jul-22 01:33N 49°29' E 000°05'9 9.4
2014-Jul-22 00:34N 49°33' W 000°08'6 6.3
2014-Jul-21 23:34N 49°39' W 000°07'8 8.3
2014-Jul-21 22:34N 49°46' W 000°02'8 8.4
2014-Jul-21 21:33N 49°53' E 000°06'7 7.1
2014-Jul-21 20:31N 49°59' E 000°13'14 7.1
2014-Jul-21 18:33N 50°10' E 000°26'15 7.3
2014-Jul-21 16:32N 50°22' E 000°40'1111.4
2014-Jul-21 15:33N 50°33' E 000°40'1111.1
2014-Jul-21 14:33N 50°41' E 000°52'1313.1
2014-Jul-21 13:33N 50°49' E 001°09'1414.0
2014-Jul-21 12:33N 50°59' E 001°24'1313.3
2014-Jul-21 11:33N 51°08' E 001°39'1212.3
2014-Jul-21 10:34N 51°18' E 001°51'1111.3
2014-Jul-21 09:33N 51°27' E 002°01'1111.3
2014-Jul-21 08:33N 51°36' E 002°12'1211.5
2014-Jul-21 07:32N 51°45' E 002°24'1212.1
2014-Jul-21 06:33N 51°54' E 002°37'1412.9
2014-Jul-21 05:28N 52°05' E 002°52'1213.5
2014-Jul-21 04:33N 52°15' E 003°04'1413.7
2014-Jul-21 03:33N 52°26' E 003°18'5212.7
2014-Jul-20 23:28N 53°05' E 004°13'1111.1
2014-Jul-20 22:31N 53°13' E 004°25'1011.0
2014-Jul-20 21:34N 53°22' E 004°33'1212.0
2014-Jul-20 20:33N 53°31' E 004°47'1313.3
2014-Jul-20 19:33N 53°36' E 005°08'1313.2
2014-Jul-20 18:33N 53°40' E 005°29'1312.7
2014-Jul-20 17:33N 53°44' E 005°49'1212.0
2014-Jul-20 16:33N 53°48' E 006°09'1111.3
2014-Jul-20 15:33N 53°51' E 006°27'1110.9
2014-Jul-20 14:33N 53°53' E 006°45'2411.4
2014-Jul-20 12:28N 53°59' E 007°25'1718.4
2014-Jul-20 11:33N 54°01' E 007°53'1515.4
2014-Jul-20 10:33N 53°60' E 008°19'1515.5
2014-Jul-20 09:33N 53°53' E 008°42'1313.1
2014-Jul-20 08:33N 53°52' E 009°05'10 9.6
2014-Jul-20 07:33N 53°50' E 009°20'1010.3
2014-Jul-20 06:33N 53°42' E 009°30'9 9.0
2014-Jul-20 05:34N 53°34' E 009°39'7 6.5
2014-Jul-20 04:33N 53°33' E 009°50'0 0.2
2014-Jul-20 03:32N 53°33' E 009°50'0 0.0
2014-Jul-20 02:32N 53°33' E 009°50'0 0.0
2014-Jul-20 01:32N 53°33' E 009°50'0 0.1
2014-Jul-20 00:33N 53°33' E 009°50'4 4.4
2014-Jul-19 23:34N 53°30' E 009°56'0 0.0
2014-Jul-19 22:34N 53°30' E 009°56'0 0.0
2014-Jul-19 21:31N 53°30' E 009°56'0 0.0
2014-Jul-19 20:33N 53°30' E 009°56'0 0.0
2014-Jul-19 19:28N 53°30' E 009°56'0 0.0
2014-Jul-19 18:31N 53°30' E 009°56'0 0.0
2014-Jul-19 17:28N 53°30' E 009°56'0 0.0
2014-Jul-19 16:30N 53°30' E 009°56'0 0.0
2014-Jul-19 15:33N 53°30' E 009°56'0 0.0
2014-Jul-19 14:33N 53°30' E 009°56'0 0.0
2014-Jul-19 13:31N 53°30' E 009°56'0 0.0
2014-Jul-19 12:31N 53°30' E 009°56'0 0.0
2014-Jul-19 11:31N 53°30' E 009°56'0 0.0
2014-Jul-19 10:30N 53°30' E 009°56'0 0.0
2014-Jul-19 09:25N 53°30' E 009°56'0 0.0
2014-Jul-19 08:34N 53°30' E 009°56'0 0.0
2014-Jul-19 07:33N 53°30' E 009°56'0 0.0
2014-Jul-19 06:31N 53°30' E 009°56'0 0.0
2014-Jul-19 05:33N 53°30' E 009°56'0 0.0
2014-Jul-19 04:34N 53°30' E 009°56'0 0.0
2014-Jul-19 03:34N 53°30' E 009°56'0 0.0
2014-Jul-19 02:34N 53°30' E 009°56'0 0.0
2014-Jul-19 01:33N 53°30' E 009°56'0 0.0
2014-Jul-19 00:34N 53°30' E 009°56'0 0.0
2014-Jul-18 23:33N 53°30' E 009°56'0 0.0
2014-Jul-18 22:33N 53°30' E 009°56'0 0.0
2014-Jul-18 21:31N 53°30' E 009°56'0 0.0
2014-Jul-18 20:33N 53°30' E 009°56'0 0.0
2014-Jul-18 19:34N 53°30' E 009°56'0 0.0
2014-Jul-18 18:33N 53°30' E 009°56'0 0.0
2014-Jul-18 17:33N 53°30' E 009°56'0 0.0
2014-Jul-18 16:33N 53°30' E 009°56'0 0.0
2014-Jul-18 15:33N 53°30' E 009°56'0 0.0
2014-Jul-18 14:33N 53°30' E 009°56'0 0.0
2014-Jul-18 13:33N 53°30' E 009°56'0 0.0
2014-Jul-18 12:33N 53°30' E 009°56'0 0.0
2014-Jul-18 11:33N 53°30' E 009°56'0 0.0
2014-Jul-18 10:33N 53°30' E 009°56'0 0.0
2014-Jul-18 09:33N 53°30' E 009°56'0 0.0
2014-Jul-18 08:33N 53°30' E 009°56'0 0.0
2014-Jul-18 07:33N 53°30' E 009°56'0 0.0
2014-Jul-18 06:33N 53°30' E 009°56'1 0.5
2014-Jul-18 05:34N 53°30' E 009°57'5 4.5
2014-Jul-18 04:34N 53°33' E 009°51'1111.1
2014-Jul-18 03:33N 53°37' E 009°33'1312.9
2014-Jul-18 02:33N 53°48' E 009°23'1111.2
2014-Jul-18 01:33N 53°52' E 009°05'1212.3
2014-Jul-18 00:33N 53°52' E 008°44'10 9.6
2014-Jul-17 23:33N 53°58' E 008°32'1211.6
2014-Jul-17 22:33N 53°60' E 008°13'10 9.7
2014-Jul-17 21:34N 54°01' E 007°56'7 6.8
2014-Jul-17 20:33N 54°04' E 007°46'0 0.3
2014-Jul-17 19:32N 54°04' E 007°46'0 0.0
2014-Jul-17 18:32N 54°04' E 007°46'0 0.0
2014-Jul-17 17:29N 54°04' E 007°46'0 0.2
2014-Jul-17 16:23N 54°04' E 007°46'0 0.2
2014-Jul-17 15:32N 54°04' E 007°46'0 0.0
2014-Jul-17 14:32N 54°04' E 007°46'0 0.0
2014-Jul-17 13:32N 54°04' E 007°46'0 0.0
2014-Jul-17 12:20N 54°04' E 007°46'0 0.0
2014-Jul-17 11:32N 54°04' E 007°46'0 0.1
2014-Jul-17 10:29N 54°04' E 007°46'0 0.2
2014-Jul-17 09:29N 54°04' E 007°46'0 0.1
2014-Jul-17 08:32N 54°04' E 007°46'0 0.1
2014-Jul-17 07:32N 54°04' E 007°46'3 3.1
2014-Jul-17 06:33N 54°03' E 007°41'9 9.3
2014-Jul-17 05:33N 53°55' E 007°32'1211.4
2014-Jul-17 04:30N 53°53' E 007°12'1111.7
2014-Jul-17 03:33N 53°50' E 006°54'1212.0
2014-Jul-17 02:33N 53°48' E 006°34'1212.3
2014-Jul-17 01:33N 53°44' E 006°14'1312.7
2014-Jul-17 00:33N 53°40' E 005°53'1312.9
2014-Jul-16 23:34N 53°36' E 005°33'1313.1
2014-Jul-16 22:33N 53°32' E 005°12'1413.5
2014-Jul-16 21:33N 53°26' E 004°51'1413.6
2014-Jul-16 20:33N 53°16' E 004°36'1414.4
2014-Jul-16 19:33N 53°04' E 004°25'1414.0
2014-Jul-16 18:33N 52°51' E 004°13'1414.3
2014-Jul-16 17:33N 52°39' E 004°02'1414.2
2014-Jul-16 16:33N 52°26' E 003°53'1313.3
2014-Jul-16 15:33N 52°12' E 003°54'1110.7
2014-Jul-16 14:33N 52°02' E 003°56'7 7.2
2014-Jul-16 13:33N 51°57' E 004°05'1 1.1
2014-Jul-16 12:29N 51°57' E 004°03'0 0.0
2014-Jul-16 11:32N 51°57' E 004°03'0 0.0
2014-Jul-16 10:32N 51°57' E 004°03'0 0.0
2014-Jul-16 09:32N 51°57' E 004°03'0 0.0
2014-Jul-16 08:32N 51°57' E 004°03'0 0.0
2014-Jul-16 07:32N 51°57' E 004°03'0 0.0
2014-Jul-16 06:32N 51°57' E 004°03'0 0.0
2014-Jul-16 05:32N 51°57' E 004°03'0 0.0
2014-Jul-16 04:29N 51°57' E 004°03'0 0.0
2014-Jul-16 03:32N 51°57' E 004°03'0 0.0
2014-Jul-16 02:29N 51°57' E 004°03'0 0.0
2014-Jul-16 01:29N 51°57' E 004°03'0 0.0
2014-Jul-16 00:32N 51°57' E 004°03'0 0.0
2014-Jul-15 23:32N 51°57' E 004°03'0 0.0
2014-Jul-15 22:29N 51°57' E 004°03'0 0.0
2014-Jul-15 21:32N 51°57' E 004°03'0 0.1
2014-Jul-15 20:29N 51°57' E 004°03'0 0.1
2014-Jul-15 19:32N 51°57' E 004°03'0 0.0
2014-Jul-15 18:32N 51°57' E 004°03'0 0.0
2014-Jul-15 17:32N 51°57' E 004°03'0 0.0
2014-Jul-15 16:32N 51°57' E 004°03'0 0.0
2014-Jul-15 15:32N 51°57' E 004°03'0 0.0
2014-Jul-15 14:32N 51°57' E 004°03'0 0.0
2014-Jul-15 13:29N 51°57' E 004°03'0 0.0
2014-Jul-15 12:32N 51°57' E 004°03'0 0.0
2014-Jul-15 11:32N 51°57' E 004°03'0 0.0
2014-Jul-15 10:32N 51°57' E 004°03'0 0.0
2014-Jul-15 09:32N 51°57' E 004°03'0 0.0
2014-Jul-15 08:32N 51°57' E 004°03'0 0.0
2014-Jul-15 07:32N 51°57' E 004°03'0 0.0
2014-Jul-15 06:29N 51°57' E 004°03'0 0.0
2014-Jul-15 05:32N 51°57' E 004°03'0 0.0
2014-Jul-15 04:32N 51°57' E 004°03'0 0.0
2014-Jul-15 03:29N 51°57' E 004°03'0 0.0
2014-Jul-15 02:29N 51°57' E 004°03'0 0.0
2014-Jul-15 01:29N 51°57' E 004°03'0 0.0
2014-Jul-15 00:32N 51°57' E 004°03'0 0.0
2014-Jul-14 23:32N 51°57' E 004°03'0 0.0
2014-Jul-14 22:32N 51°57' E 004°03'0 0.0
2014-Jul-14 21:32N 51°57' E 004°03'0 0.5
2014-Jul-14 20:33N 51°57' E 004°04'3 3.2
2014-Jul-14 19:33N 51°60' E 004°01'  
Track history (hours):
 
Tides and Currents Weather Stations Pressure Air Temp Water Temp Dewpoint Dewpoint Depression Visibility Wind Speed Wind Dir Waves Ship Positions

MOL Celebration

Last reported at 2014-Jul-24 19:32 UTC. Time now 2014-Jul-24 20:06 UTC.
Position N 50°54' W 001°27'.

Length 316 m; draft 14 m.

Type: Ship (hazmat cat D). MMSI: 309901000.

Date/timePositionNaut miles runAvg speedWind from/ knotsBaromVisibWave heightAir tempDewpointWater temp
2014-Jul-24 19:32N 50°54' W 001°27'0 0.0
2014-Jul-24 18:32N 50°54' W 001°27'0 0.0
2014-Jul-24 17:32N 50°54' W 001°27'0 0.0
2014-Jul-24 16:29N 50°54' W 001°27'0 0.0
2014-Jul-24 15:32N 50°54' W 001°27'0 0.0
2014-Jul-24 14:32N 50°54' W 001°27'0 0.0
2014-Jul-24 13:32N 50°54' W 001°27'0 0.0
2014-Jul-24 12:32N 50°54' W 001°27'0 0.0
2014-Jul-24 11:32N 50°54' W 001°27'0 0.0
2014-Jul-24 10:32N 50°54' W 001°27'0 0.0
2014-Jul-24 09:32N 50°54' W 001°27'0 0.0
2014-Jul-24 08:32N 50°54' W 001°27'0 0.0
2014-Jul-24 07:32N 50°54' W 001°27'0 0.0
2014-Jul-24 06:32N 50°54' W 001°27'0 0.0
2014-Jul-24 05:32N 50°54' W 001°27'0 0.0
2014-Jul-24 04:32N 50°54' W 001°27'0 0.0
2014-Jul-24 03:33N 50°54' W 001°27'0 0.0
2014-Jul-24 02:33N 50°54' W 001°27'0 0.0
2014-Jul-24 01:29N 50°54' W 001°27'0 0.0
2014-Jul-24 00:32N 50°54' W 001°27'2 2.0
2014-Jul-23 23:33N 50°53' W 001°24'7 6.9
2014-Jul-23 22:34N 50°47' W 001°19'1515.4
2014-Jul-23 21:34N 50°41' W 000°57'1414.3
2014-Jul-23 20:33N 50°27' W 000°52'2120.9
2014-Jul-23 19:33N 50°08' W 000°40'2221.6
2014-Jul-23 18:33N 49°48' W 000°26'1918.7
2014-Jul-23 17:33N 49°32' W 000°10'1212.3
2014-Jul-23 16:33N 49°28' E 000°07'1 1.1
2014-Jul-23 15:31N 49°28' E 000°09'0 0.0
2014-Jul-23 14:31N 49°28' E 000°09'0 0.0
2014-Jul-23 13:31N 49°28' E 000°09'0 0.0
2014-Jul-23 12:31N 49°28' E 000°09'0 0.0
2014-Jul-23 11:31N 49°28' E 000°09'0 0.0
2014-Jul-23 10:31N 49°28' E 000°09'0 0.0
2014-Jul-23 09:31N 49°28' E 000°09'0 0.0
2014-Jul-23 08:31N 49°28' E 000°09'0 0.0
2014-Jul-23 07:31N 49°28' E 000°09'0 0.0
2014-Jul-23 06:31N 49°28' E 000°09'0 0.0
2014-Jul-23 05:31N 49°28' E 000°09'0 0.0
2014-Jul-23 04:31N 49°28' E 000°09'0 0.0
2014-Jul-23 03:31N 49°28' E 000°09'0 0.0
2014-Jul-23 02:31N 49°28' E 000°09'0 0.0
2014-Jul-23 01:31N 49°28' E 000°09'0 0.0
2014-Jul-23 00:31N 49°28' E 000°09'0 0.0
2014-Jul-22 23:31N 49°28' E 000°09'0 0.0
2014-Jul-22 22:31N 49°28' E 000°09'0 0.0
2014-Jul-22 21:31N 49°28' E 000°09'0 0.0
2014-Jul-22 20:31N 49°28' E 000°09'0 0.0
2014-Jul-22 19:31N 49°28' E 000°09'0 0.0
2014-Jul-22 18:31N 49°28' E 000°09'0 0.0
2014-Jul-22 17:31N 49°28' E 000°09'0 0.0
2014-Jul-22 16:31N 49°28' E 000°09'0 0.0
2014-Jul-22 15:31N 49°28' E 000°09'0 0.0
2014-Jul-22 14:31N 49°28' E 000°09'0 0.0
2014-Jul-22 13:31N 49°28' E 000°09'0 0.0
2014-Jul-22 12:31N 49°28' E 000°09'0 0.0
2014-Jul-22 11:31N 49°28' E 000°09'0 0.0
2014-Jul-22 10:31N 49°28' E 000°09'0 0.0
2014-Jul-22 09:31N 49°28' E 000°09'0 0.0
2014-Jul-22 08:31N 49°28' E 000°09'0 0.0
2014-Jul-22 07:31N 49°28' E 000°09'0 0.0
2014-Jul-22 06:31N 49°28' E 000°09'0 0.0
2014-Jul-22 05:31N 49°28' E 000°09'0 0.0
2014-Jul-22 04:31N 49°28' E 000°09'0 0.0
2014-Jul-22 03:31N 49°28' E 000°09'0 0.0
2014-Jul-22 02:31N 49°28' E 000°09'3 3.1
2014-Jul-22 01:33N 49°29' E 000°05'9 9.4
2014-Jul-22 00:34N 49°33' W 000°08'6 6.3
2014-Jul-21 23:34N 49°39' W 000°07'8 8.3
2014-Jul-21 22:34N 49°46' W 000°02'8 8.4
2014-Jul-21 21:33N 49°53' E 000°06'7 7.1
2014-Jul-21 20:31N 49°59' E 000°13'14 7.1
2014-Jul-21 18:33N 50°10' E 000°26'15 7.3
2014-Jul-21 16:32N 50°22' E 000°40'1111.4
2014-Jul-21 15:33N 50°33' E 000°40'1111.1
2014-Jul-21 14:33N 50°41' E 000°52'1313.1
2014-Jul-21 13:33N 50°49' E 001°09'1414.0
2014-Jul-21 12:33N 50°59' E 001°24'1313.3
2014-Jul-21 11:33N 51°08' E 001°39'1212.3
2014-Jul-21 10:34N 51°18' E 001°51'1111.3
2014-Jul-21 09:33N 51°27' E 002°01'1111.3
2014-Jul-21 08:33N 51°36' E 002°12'1211.5
2014-Jul-21 07:32N 51°45' E 002°24'1212.1
2014-Jul-21 06:33N 51°54' E 002°37'1412.9
2014-Jul-21 05:28N 52°05' E 002°52'1213.5
2014-Jul-21 04:33N 52°15' E 003°04'1413.7
2014-Jul-21 03:33N 52°26' E 003°18'5212.7
2014-Jul-20 23:28N 53°05' E 004°13'1111.1
2014-Jul-20 22:31N 53°13' E 004°25'1011.0
2014-Jul-20 21:34N 53°22' E 004°33'1212.0
2014-Jul-20 20:33N 53°31' E 004°47'1313.3
2014-Jul-20 19:33N 53°36' E 005°08'1313.2
2014-Jul-20 18:33N 53°40' E 005°29'1312.7
2014-Jul-20 17:33N 53°44' E 005°49'1212.0
2014-Jul-20 16:33N 53°48' E 006°09'1111.3
2014-Jul-20 15:33N 53°51' E 006°27'1110.9
2014-Jul-20 14:33N 53°53' E 006°45'2411.4
2014-Jul-20 12:28N 53°59' E 007°25'1718.4
2014-Jul-20 11:33N 54°01' E 007°53'1515.4
2014-Jul-20 10:33N 53°60' E 008°19'1515.5
2014-Jul-20 09:33N 53°53' E 008°42'1313.1
2014-Jul-20 08:33N 53°52' E 009°05'10 9.6
2014-Jul-20 07:33N 53°50' E 009°20'1010.3
2014-Jul-20 06:33N 53°42' E 009°30'9 9.0
2014-Jul-20 05:34N 53°34' E 009°39'7 6.5
2014-Jul-20 04:33N 53°33' E 009°50'0 0.2
2014-Jul-20 03:32N 53°33' E 009°50'0 0.0
2014-Jul-20 02:32N 53°33' E 009°50'0 0.0
2014-Jul-20 01:32N 53°33' E 009°50'0 0.1
2014-Jul-20 00:33N 53°33' E 009°50'4 4.4
2014-Jul-19 23:34N 53°30' E 009°56'0 0.0
2014-Jul-19 22:34N 53°30' E 009°56'0 0.0
2014-Jul-19 21:31N 53°30' E 009°56'0 0.0
2014-Jul-19 20:33N 53°30' E 009°56'0 0.0
2014-Jul-19 19:28N 53°30' E 009°56'0 0.0
2014-Jul-19 18:31N 53°30' E 009°56'0 0.0
2014-Jul-19 17:28N 53°30' E 009°56'0 0.0
2014-Jul-19 16:30N 53°30' E 009°56'0 0.0
2014-Jul-19 15:33N 53°30' E 009°56'0 0.0
2014-Jul-19 14:33N 53°30' E 009°56'0 0.0
2014-Jul-19 13:31N 53°30' E 009°56'0 0.0
2014-Jul-19 12:31N 53°30' E 009°56'0 0.0
2014-Jul-19 11:31N 53°30' E 009°56'0 0.0
2014-Jul-19 10:30N 53°30' E 009°56'0 0.0
2014-Jul-19 09:25N 53°30' E 009°56'0 0.0
2014-Jul-19 08:34N 53°30' E 009°56'0 0.0
2014-Jul-19 07:33N 53°30' E 009°56'0 0.0
2014-Jul-19 06:31N 53°30' E 009°56'0 0.0
2014-Jul-19 05:33N 53°30' E 009°56'0 0.0
2014-Jul-19 04:34N 53°30' E 009°56'0 0.0
2014-Jul-19 03:34N 53°30' E 009°56'0 0.0
2014-Jul-19 02:34N 53°30' E 009°56'0 0.0
2014-Jul-19 01:33N 53°30' E 009°56'0 0.0
2014-Jul-19 00:34N 53°30' E 009°56'0 0.0
2014-Jul-18 23:33N 53°30' E 009°56'0 0.0
2014-Jul-18 22:33N 53°30' E 009°56'0 0.0
2014-Jul-18 21:31N 53°30' E 009°56'0 0.0
2014-Jul-18 20:33N 53°30' E 009°56'0 0.0
2014-Jul-18 19:34N 53°30' E 009°56'0 0.0
2014-Jul-18 18:33N 53°30' E 009°56'0 0.0
2014-Jul-18 17:33N 53°30' E 009°56'0 0.0
2014-Jul-18 16:33N 53°30' E 009°56'0 0.0
2014-Jul-18 15:33N 53°30' E 009°56'0 0.0
2014-Jul-18 14:33N 53°30' E 009°56'0 0.0
2014-Jul-18 13:33N 53°30' E 009°56'0 0.0
2014-Jul-18 12:33N 53°30' E 009°56'0 0.0
2014-Jul-18 11:33N 53°30' E 009°56'0 0.0
2014-Jul-18 10:33N 53°30' E 009°56'0 0.0
2014-Jul-18 09:33N 53°30' E 009°56'0 0.0
2014-Jul-18 08:33N 53°30' E 009°56'0 0.0
2014-Jul-18 07:33N 53°30' E 009°56'0 0.0
2014-Jul-18 06:33N 53°30' E 009°56'1 0.5
2014-Jul-18 05:34N 53°30' E 009°57'5 4.5
2014-Jul-18 04:34N 53°33' E 009°51'1111.1
2014-Jul-18 03:33N 53°37' E 009°33'1312.9
2014-Jul-18 02:33N 53°48' E 009°23'1111.2
2014-Jul-18 01:33N 53°52' E 009°05'1212.3
2014-Jul-18 00:33N 53°52' E 008°44'10 9.6
2014-Jul-17 23:33N 53°58' E 008°32'1211.6
2014-Jul-17 22:33N 53°60' E 008°13'10 9.7
2014-Jul-17 21:34N 54°01' E 007°56'7 6.8
2014-Jul-17 20:33N 54°04' E 007°46'0 0.3
2014-Jul-17 19:32N 54°04' E 007°46'0 0.0
2014-Jul-17 18:32N 54°04' E 007°46'0 0.0
2014-Jul-17 17:29N 54°04' E 007°46'0 0.2
2014-Jul-17 16:23N 54°04' E 007°46'0 0.2
2014-Jul-17 15:32N 54°04' E 007°46'0 0.0
2014-Jul-17 14:32N 54°04' E 007°46'0 0.0
2014-Jul-17 13:32N 54°04' E 007°46'0 0.0
2014-Jul-17 12:20N 54°04' E 007°46'0 0.0
2014-Jul-17 11:32N 54°04' E 007°46'0 0.1
2014-Jul-17 10:29N 54°04' E 007°46'0 0.2
2014-Jul-17 09:29N 54°04' E 007°46'0 0.1
2014-Jul-17 08:32N 54°04' E 007°46'0 0.1
2014-Jul-17 07:32N 54°04' E 007°46'3 3.1
2014-Jul-17 06:33N 54°03' E 007°41'9 9.3
2014-Jul-17 05:33N 53°55' E 007°32'1211.4
2014-Jul-17 04:30N 53°53' E 007°12'1111.7
2014-Jul-17 03:33N 53°50' E 006°54'1212.0
2014-Jul-17 02:33N 53°48' E 006°34'1212.3
2014-Jul-17 01:33N 53°44' E 006°14'1312.7
2014-Jul-17 00:33N 53°40' E 005°53'1312.9
2014-Jul-16 23:34N 53°36' E 005°33'1313.1
2014-Jul-16 22:33N 53°32' E 005°12'1413.5
2014-Jul-16 21:33N 53°26' E 004°51'1413.6
2014-Jul-16 20:33N 53°16' E 004°36'1414.4
2014-Jul-16 19:33N 53°04' E 004°25'1414.0
2014-Jul-16 18:33N 52°51' E 004°13'1414.3
2014-Jul-16 17:33N 52°39' E 004°02'1414.2
2014-Jul-16 16:33N 52°26' E 003°53'1313.3
2014-Jul-16 15:33N 52°12' E 003°54'1110.7
2014-Jul-16 14:33N 52°02' E 003°56'7 7.2
2014-Jul-16 13:33N 51°57' E 004°05'1 1.1
2014-Jul-16 12:29N 51°57' E 004°03'0 0.0
2014-Jul-16 11:32N 51°57' E 004°03'0 0.0
2014-Jul-16 10:32N 51°57' E 004°03'0 0.0
2014-Jul-16 09:32N 51°57' E 004°03'0 0.0
2014-Jul-16 08:32N 51°57' E 004°03'0 0.0
2014-Jul-16 07:32N 51°57' E 004°03'0 0.0
2014-Jul-16 06:32N 51°57' E 004°03'0 0.0
2014-Jul-16 05:32N 51°57' E 004°03'0 0.0
2014-Jul-16 04:29N 51°57' E 004°03'0 0.0
2014-Jul-16 03:32N 51°57' E 004°03'0 0.0
2014-Jul-16 02:29N 51°57' E 004°03'0 0.0
2014-Jul-16 01:29N 51°57' E 004°03'0 0.0
2014-Jul-16 00:32N 51°57' E 004°03'0 0.0
2014-Jul-15 23:32N 51°57' E 004°03'0 0.0
2014-Jul-15 22:29N 51°57' E 004°03'0 0.0
2014-Jul-15 21:32N 51°57' E 004°03'0 0.1
2014-Jul-15 20:29N 51°57' E 004°03'0 0.1
2014-Jul-15 19:32N 51°57' E 004°03'0 0.0
2014-Jul-15 18:32N 51°57' E 004°03'0 0.0
2014-Jul-15 17:32N 51°57' E 004°03'0 0.0
2014-Jul-15 16:32N 51°57' E 004°03'0 0.0
2014-Jul-15 15:32N 51°57' E 004°03'0 0.0
2014-Jul-15 14:32N 51°57' E 004°03'0 0.0
2014-Jul-15 13:29N 51°57' E 004°03'0 0.0
2014-Jul-15 12:32N 51°57' E 004°03'0 0.0
2014-Jul-15 11:32N 51°57' E 004°03'0 0.0
2014-Jul-15 10:32N 51°57' E 004°03'0 0.0
2014-Jul-15 09:32N 51°57' E 004°03'0 0.0
2014-Jul-15 08:32N 51°57' E 004°03'0 0.0
2014-Jul-15 07:32N 51°57' E 004°03'0 0.0
2014-Jul-15 06:29N 51°57' E 004°03'0 0.0
2014-Jul-15 05:32N 51°57' E 004°03'0 0.0
2014-Jul-15 04:32N 51°57' E 004°03'0 0.0
2014-Jul-15 03:29N 51°57' E 004°03'0 0.0
2014-Jul-15 02:29N 51°57' E 004°03'0 0.0
2014-Jul-15 01:29N 51°57' E 004°03'0 0.0
2014-Jul-15 00:32N 51°57' E 004°03'0 0.0
2014-Jul-14 23:32N 51°57' E 004°03'0 0.0
2014-Jul-14 22:32N 51°57' E 004°03'0 0.0
2014-Jul-14 21:32N 51°57' E 004°03'0 0.5
2014-Jul-14 20:33N 51°57' E 004°04'3 3.2
2014-Jul-14 19:33N 51°60' E 004°01'  

Dump ship's entire track history